sensor_id;sensor_type;location;lat;lon;timestamp;P1;durP1;ratioP1;P2;durP2;ratioP2
10162;SDS011;5123;52.556;13.384;2023-09-19T00:02:20;5.17;;;3.10;;
10162;SDS011;5123;52.556;13.384;2023-09-19T00:04:53;7.80;;;2.90;;
10162;SDS011;5123;52.556;13.384;2023-09-19T00:07:36;7.43;;;2.70;;
10162;SDS011;5123;52.556;13.384;2023-09-19T00:10:09;3.83;;;2.97;;
10162;SDS011;5123;52.556;13.384;2023-09-19T00:12:44;3.80;;;2.70;;
10162;SDS011;5123;52.556;13.384;2023-09-19T00:15:16;4.53;;;2.67;;
10162;SDS011;5123;52.556;13.384;2023-09-19T00:17:53;5.43;;;2.77;;
10162;SDS011;5123;52.556;13.384;2023-09-19T00:20:25;4.37;;;2.80;;
10162;SDS011;5123;52.556;13.384;2023-09-19T00:23:01;3.03;;;2.63;;
10162;SDS011;5123;52.556;13.384;2023-09-19T00:25:40;4.23;;;2.90;;
10162;SDS011;5123;52.556;13.384;2023-09-19T00:28:14;5.70;;;3.10;;
10162;SDS011;5123;52.556;13.384;2023-09-19T00:30:51;4.77;;;3.00;;
10162;SDS011;5123;52.556;13.384;2023-09-19T00:33:26;5.63;;;2.50;;
10162;SDS011;5123;52.556;13.384;2023-09-19T00:36:00;4.90;;;2.73;;
10162;SDS011;5123;52.556;13.384;2023-09-19T00:38:36;3.80;;;2.80;;
10162;SDS011;5123;52.556;13.384;2023-09-19T00:41:09;3.40;;;2.80;;
10162;SDS011;5123;52.556;13.384;2023-09-19T00:43:43;4.40;;;2.70;;
10162;SDS011;5123;52.556;13.384;2023-09-19T00:46:16;3.67;;;3.17;;
10162;SDS011;5123;52.556;13.384;2023-09-19T00:48:49;4.37;;;2.57;;
10162;SDS011;5123;52.556;13.384;2023-09-19T00:51:22;4.27;;;2.90;;
10162;SDS011;5123;52.556;13.384;2023-09-19T00:53:56;3.10;;;2.50;;
10162;SDS011;5123;52.556;13.384;2023-09-19T00:56:30;3.87;;;2.50;;
10162;SDS011;5123;52.556;13.384;2023-09-19T00:59:04;3.83;;;2.57;;
10162;SDS011;5123;52.556;13.384;2023-09-19T01:01:37;4.47;;;2.50;;
10162;SDS011;5123;52.556;13.384;2023-09-19T01:04:11;4.20;;;2.67;;
10162;SDS011;5123;52.556;13.384;2023-09-19T01:06:47;4.67;;;2.43;;
10162;SDS011;5123;52.556;13.384;2023-09-19T01:09:26;3.57;;;2.87;;
10162;SDS011;5123;52.556;13.384;2023-09-19T01:12:02;3.40;;;2.47;;
10162;SDS011;5123;52.556;13.384;2023-09-19T01:14:41;5.27;;;2.97;;
10162;SDS011;5123;52.556;13.384;2023-09-19T01:17:20;4.77;;;2.83;;
10162;SDS011;5123;52.556;13.384;2023-09-19T01:20:09;5.90;;;3.03;;
10162;SDS011;5123;52.556;13.384;2023-09-19T01:22:49;5.50;;;2.80;;
10162;SDS011;5123;52.556;13.384;2023-09-19T01:25:35;4.23;;;2.53;;
10162;SDS011;5123;52.556;13.384;2023-09-19T01:28:20;2.73;;;2.30;;
10162;SDS011;5123;52.556;13.384;2023-09-19T01:30:59;3.07;;;2.40;;
10162;SDS011;5123;52.556;13.384;2023-09-19T01:33:53;3.73;;;2.43;;
10162;SDS011;5123;52.556;13.384;2023-09-19T01:36:32;6.57;;;2.80;;
10162;SDS011;5123;52.556;13.384;2023-09-19T01:39:08;3.40;;;2.43;;
10162;SDS011;5123;52.556;13.384;2023-09-19T01:41:55;2.97;;;2.00;;
10162;SDS011;5123;52.556;13.384;2023-09-19T01:44:34;2.43;;;2.23;;
10162;SDS011;5123;52.556;13.384;2023-09-19T01:47:18;4.13;;;2.97;;
10162;SDS011;5123;52.556;13.384;2023-09-19T01:49:55;3.20;;;2.17;;
10162;SDS011;5123;52.556;13.384;2023-09-19T01:52:30;4.53;;;2.10;;
10162;SDS011;5123;52.556;13.384;2023-09-19T01:55:06;3.80;;;2.63;;
10162;SDS011;5123;52.556;13.384;2023-09-19T01:57:42;3.80;;;2.30;;
10162;SDS011;5123;52.556;13.384;2023-09-19T02:00:18;3.50;;;2.30;;
10162;SDS011;5123;52.556;13.384;2023-09-19T02:02:54;3.03;;;2.30;;
10162;SDS011;5123;52.556;13.384;2023-09-19T02:05:30;3.20;;;2.23;;
10162;SDS011;5123;52.556;13.384;2023-09-19T02:08:04;4.67;;;2.33;;
10162;SDS011;5123;52.556;13.384;2023-09-19T02:10:41;4.40;;;2.23;;
10162;SDS011;5123;52.556;13.384;2023-09-19T02:13:15;6.17;;;2.70;;
10162;SDS011;5123;52.556;13.384;2023-09-19T02:15:48;4.90;;;2.73;;
10162;SDS011;5123;52.556;13.384;2023-09-19T02:18:22;3.13;;;2.40;;
10162;SDS011;5123;52.556;13.384;2023-09-19T02:20:55;4.67;;;2.50;;
10162;SDS011;5123;52.556;13.384;2023-09-19T02:23:27;4.20;;;2.33;;
10162;SDS011;5123;52.556;13.384;2023-09-19T02:26:01;2.43;;;2.20;;
10162;SDS011;5123;52.556;13.384;2023-09-19T02:28:35;3.47;;;2.30;;
10162;SDS011;5123;52.556;13.384;2023-09-19T02:31:08;5.87;;;2.37;;
10162;SDS011;5123;52.556;13.384;2023-09-19T02:33:42;3.43;;;3.13;;
10162;SDS011;5123;52.556;13.384;2023-09-19T02:36:22;4.10;;;2.60;;
10162;SDS011;5123;52.556;13.384;2023-09-19T02:38:55;3.30;;;2.60;;
10162;SDS011;5123;52.556;13.384;2023-09-19T02:41:28;3.00;;;2.30;;
10162;SDS011;5123;52.556;13.384;2023-09-19T02:44:01;5.47;;;2.47;;
10162;SDS011;5123;52.556;13.384;2023-09-19T02:46:38;3.50;;;2.50;;
10162;SDS011;5123;52.556;13.384;2023-09-19T02:49:16;5.20;;;2.67;;
10162;SDS011;5123;52.556;13.384;2023-09-19T02:51:49;3.20;;;2.50;;
10162;SDS011;5123;52.556;13.384;2023-09-19T02:54:22;3.20;;;2.33;;
10162;SDS011;5123;52.556;13.384;2023-09-19T02:56:55;2.97;;;2.50;;
10162;SDS011;5123;52.556;13.384;2023-09-19T02:59:31;2.77;;;2.50;;
10162;SDS011;5123;52.556;13.384;2023-09-19T03:02:04;5.97;;;2.30;;
10162;SDS011;5123;52.556;13.384;2023-09-19T03:04:38;4.67;;;2.47;;
10162;SDS011;5123;52.556;13.384;2023-09-19T03:07:16;4.10;;;2.80;;
10162;SDS011;5123;52.556;13.384;2023-09-19T03:09:49;4.53;;;2.60;;
10162;SDS011;5123;52.556;13.384;2023-09-19T03:12:24;5.13;;;2.33;;
10162;SDS011;5123;52.556;13.384;2023-09-19T03:14:58;2.87;;;2.50;;
10162;SDS011;5123;52.556;13.384;2023-09-19T03:17:31;3.23;;;2.43;;
10162;SDS011;5123;52.556;13.384;2023-09-19T03:20:06;4.13;;;2.37;;
10162;SDS011;5123;52.556;13.384;2023-09-19T03:22:41;2.40;;;2.20;;
10162;SDS011;5123;52.556;13.384;2023-09-19T03:25:14;3.07;;;2.23;;
10162;SDS011;5123;52.556;13.384;2023-09-19T03:27:49;4.37;;;2.20;;
10162;SDS011;5123;52.556;13.384;2023-09-19T03:30:22;2.40;;;1.90;;
10162;SDS011;5123;52.556;13.384;2023-09-19T03:32:54;3.30;;;1.97;;
10162;SDS011;5123;52.556;13.384;2023-09-19T03:35:29;4.00;;;2.00;;
10162;SDS011;5123;52.556;13.384;2023-09-19T03:38:02;3.03;;;2.23;;
10162;SDS011;5123;52.556;13.384;2023-09-19T03:40:36;3.50;;;1.90;;
10162;SDS011;5123;52.556;13.384;2023-09-19T03:43:09;4.57;;;1.90;;
10162;SDS011;5123;52.556;13.384;2023-09-19T03:45:42;2.10;;;1.90;;
10162;SDS011;5123;52.556;13.384;2023-09-19T03:48:18;2.03;;;1.60;;
10162;SDS011;5123;52.556;13.384;2023-09-19T03:50:52;2.90;;;1.90;;
10162;SDS011;5123;52.556;13.384;2023-09-19T03:53:27;2.30;;;1.67;;
10162;SDS011;5123;52.556;13.384;2023-09-19T03:56:00;2.53;;;1.83;;
10162;SDS011;5123;52.556;13.384;2023-09-19T03:58:34;4.77;;;1.77;;
10162;SDS011;5123;52.556;13.384;2023-09-19T04:01:10;2.23;;;1.70;;
10162;SDS011;5123;52.556;13.384;2023-09-19T04:03:47;3.57;;;1.70;;
10162;SDS011;5123;52.556;13.384;2023-09-19T04:06:24;2.63;;;1.70;;
10162;SDS011;5123;52.556;13.384;2023-09-19T04:08:58;1.83;;;1.50;;
10162;SDS011;5123;52.556;13.384;2023-09-19T04:11:35;1.87;;;1.73;;
10162;SDS011;5123;52.556;13.384;2023-09-19T04:14:08;3.30;;;1.50;;
10162;SDS011;5123;52.556;13.384;2023-09-19T04:16:40;3.20;;;1.60;;
10162;SDS011;5123;52.556;13.384;2023-09-19T04:19:13;2.93;;;2.10;;
10162;SDS011;5123;52.556;13.384;2023-09-19T04:21:47;2.07;;;1.80;;
10162;SDS011;5123;52.556;13.384;2023-09-19T04:24:20;2.87;;;1.90;;
10162;SDS011;5123;52.556;13.384;2023-09-19T04:26:53;1.67;;;1.50;;
10162;SDS011;5123;52.556;13.384;2023-09-19T04:29:26;1.93;;;1.80;;
10162;SDS011;5123;52.556;13.384;2023-09-19T04:32:01;5.00;;;1.83;;
10162;SDS011;5123;52.556;13.384;2023-09-19T04:34:35;3.70;;;2.03;;
10162;SDS011;5123;52.556;13.384;2023-09-19T04:37:11;4.27;;;2.10;;
10162;SDS011;5123;52.556;13.384;2023-09-19T04:39:46;2.83;;;2.40;;
10162;SDS011;5123;52.556;13.384;2023-09-19T04:42:19;4.07;;;2.80;;
10162;SDS011;5123;52.556;13.384;2023-09-19T04:44:53;3.77;;;2.40;;
10162;SDS011;5123;52.556;13.384;2023-09-19T04:47:25;2.27;;;2.03;;
10162;SDS011;5123;52.556;13.384;2023-09-19T04:49:58;2.83;;;2.63;;
10162;SDS011;5123;52.556;13.384;2023-09-19T04:52:34;3.70;;;2.13;;
10162;SDS011;5123;52.556;13.384;2023-09-19T04:55:10;3.10;;;2.27;;
10162;SDS011;5123;52.556;13.384;2023-09-19T04:57:51;2.20;;;2.00;;
10162;SDS011;5123;52.556;13.384;2023-09-19T05:00:25;2.23;;;1.80;;
10162;SDS011;5123;52.556;13.384;2023-09-19T05:03:00;2.90;;;2.30;;
10162;SDS011;5123;52.556;13.384;2023-09-19T05:05:35;4.30;;;2.83;;
10162;SDS011;5123;52.556;13.384;2023-09-19T05:08:11;3.20;;;2.13;;
10162;SDS011;5123;52.556;13.384;2023-09-19T05:10:46;3.10;;;2.10;;
10162;SDS011;5123;52.556;13.384;2023-09-19T05:13:21;4.63;;;2.30;;
10162;SDS011;5123;52.556;13.384;2023-09-19T05:15:54;3.03;;;2.10;;
10162;SDS011;5123;52.556;13.384;2023-09-19T05:18:27;3.90;;;2.20;;
10162;SDS011;5123;52.556;13.384;2023-09-19T05:21:01;4.10;;;2.37;;
10162;SDS011;5123;52.556;13.384;2023-09-19T05:23:38;2.60;;;2.20;;
10162;SDS011;5123;52.556;13.384;2023-09-19T05:26:11;4.23;;;2.13;;
10162;SDS011;5123;52.556;13.384;2023-09-19T05:28:44;3.73;;;2.70;;
10162;SDS011;5123;52.556;13.384;2023-09-19T05:31:26;4.93;;;2.10;;
10162;SDS011;5123;52.556;13.384;2023-09-19T05:33:59;4.27;;;2.30;;
10162;SDS011;5123;52.556;13.384;2023-09-19T05:36:32;3.27;;;2.00;;
10162;SDS011;5123;52.556;13.384;2023-09-19T05:39:06;2.20;;;1.80;;
10162;SDS011;5123;52.556;13.384;2023-09-19T05:41:41;2.50;;;1.97;;
10162;SDS011;5123;52.556;13.384;2023-09-19T05:44:14;2.70;;;2.00;;
10162;SDS011;5123;52.556;13.384;2023-09-19T05:46:46;3.93;;;2.27;;
10162;SDS011;5123;52.556;13.384;2023-09-19T05:49:19;3.37;;;2.17;;
10162;SDS011;5123;52.556;13.384;2023-09-19T05:51:53;2.77;;;2.10;;
10162;SDS011;5123;52.556;13.384;2023-09-19T05:54:29;2.40;;;2.10;;
10162;SDS011;5123;52.556;13.384;2023-09-19T05:57:01;3.10;;;2.37;;
10162;SDS011;5123;52.556;13.384;2023-09-19T05:59:34;5.40;;;2.53;;
10162;SDS011;5123;52.556;13.384;2023-09-19T06:02:07;3.70;;;2.10;;
10162;SDS011;5123;52.556;13.384;2023-09-19T06:04:41;5.27;;;2.53;;
10162;SDS011;5123;52.556;13.384;2023-09-19T06:07:14;3.47;;;2.27;;
10162;SDS011;5123;52.556;13.384;2023-09-19T06:09:49;2.73;;;2.07;;
10162;SDS011;5123;52.556;13.384;2023-09-19T06:12:22;2.30;;;2.10;;
10162;SDS011;5123;52.556;13.384;2023-09-19T06:14:55;4.67;;;2.73;;
10162;SDS011;5123;52.556;13.384;2023-09-19T06:17:27;5.37;;;2.10;;
10162;SDS011;5123;52.556;13.384;2023-09-19T06:20:02;2.13;;;1.93;;
10162;SDS011;5123;52.556;13.384;2023-09-19T06:22:36;4.93;;;3.17;;
10162;SDS011;5123;52.556;13.384;2023-09-19T06:25:11;3.57;;;2.13;;
10162;SDS011;5123;52.556;13.384;2023-09-19T06:27:52;2.60;;;1.97;;
10162;SDS011;5123;52.556;13.384;2023-09-19T06:30:25;2.50;;;2.30;;
10162;SDS011;5123;52.556;13.384;2023-09-19T06:33:00;2.63;;;2.10;;
10162;SDS011;5123;52.556;13.384;2023-09-19T06:35:35;2.97;;;2.30;;
10162;SDS011;5123;52.556;13.384;2023-09-19T06:38:10;3.30;;;2.57;;
10162;SDS011;5123;52.556;13.384;2023-09-19T06:40:46;3.67;;;2.33;;
10162;SDS011;5123;52.556;13.384;2023-09-19T06:43:18;4.30;;;2.27;;
10162;SDS011;5123;52.556;13.384;2023-09-19T06:45:51;4.03;;;2.40;;
10162;SDS011;5123;52.556;13.384;2023-09-19T06:48:26;2.80;;;2.20;;
10162;SDS011;5123;52.556;13.384;2023-09-19T06:51:03;5.57;;;2.30;;
10162;SDS011;5123;52.556;13.384;2023-09-19T06:53:37;3.63;;;2.40;;
10162;SDS011;5123;52.556;13.384;2023-09-19T06:56:13;5.03;;;2.30;;
10162;SDS011;5123;52.556;13.384;2023-09-19T06:58:48;3.87;;;2.80;;
10162;SDS011;5123;52.556;13.384;2023-09-19T07:01:20;2.50;;;2.13;;
10162;SDS011;5123;52.556;13.384;2023-09-19T07:03:53;4.80;;;2.50;;
10162;SDS011;5123;52.556;13.384;2023-09-19T07:06:29;7.50;;;2.43;;
10162;SDS011;5123;52.556;13.384;2023-09-19T07:09:01;5.17;;;2.40;;
10162;SDS011;5123;52.556;13.384;2023-09-19T07:11:35;4.17;;;2.70;;
10162;SDS011;5123;52.556;13.384;2023-09-19T07:14:12;3.40;;;2.37;;
10162;SDS011;5123;52.556;13.384;2023-09-19T07:16:44;2.93;;;2.20;;
10162;SDS011;5123;52.556;13.384;2023-09-19T07:19:19;2.77;;;2.57;;
10162;SDS011;5123;52.556;13.384;2023-09-19T07:21:51;2.43;;;2.10;;
10162;SDS011;5123;52.556;13.384;2023-09-19T07:24:25;4.27;;;2.50;;
10162;SDS011;5123;52.556;13.384;2023-09-19T07:27:01;4.23;;;2.80;;
10162;SDS011;5123;52.556;13.384;2023-09-19T07:29:34;4.53;;;2.50;;
10162;SDS011;5123;52.556;13.384;2023-09-19T07:32:06;2.67;;;2.20;;
10162;SDS011;5123;52.556;13.384;2023-09-19T07:34:39;4.23;;;2.53;;
10162;SDS011;5123;52.556;13.384;2023-09-19T07:37:12;6.00;;;2.10;;
10162;SDS011;5123;52.556;13.384;2023-09-19T07:39:57;3.23;;;2.30;;
10162;SDS011;5123;52.556;13.384;2023-09-19T07:42:31;5.53;;;2.43;;
10162;SDS011;5123;52.556;13.384;2023-09-19T07:45:09;4.73;;;2.60;;
10162;SDS011;5123;52.556;13.384;2023-09-19T07:47:48;2.90;;;2.60;;
10162;SDS011;5123;52.556;13.384;2023-09-19T07:50:23;2.33;;;2.07;;
10162;SDS011;5123;52.556;13.384;2023-09-19T07:52:57;3.40;;;2.60;;
10162;SDS011;5123;52.556;13.384;2023-09-19T07:55:30;4.13;;;2.50;;
10162;SDS011;5123;52.556;13.384;2023-09-19T07:58:06;3.23;;;2.63;;
10162;SDS011;5123;52.556;13.384;2023-09-19T08:00:39;4.57;;;2.80;;
10162;SDS011;5123;52.556;13.384;2023-09-19T08:03:12;3.37;;;2.77;;
10162;SDS011;5123;52.556;13.384;2023-09-19T08:05:48;3.23;;;2.90;;
10162;SDS011;5123;52.556;13.384;2023-09-19T08:08:24;6.70;;;2.90;;
10162;SDS011;5123;52.556;13.384;2023-09-19T08:10:57;4.47;;;2.63;;
10162;SDS011;5123;52.556;13.384;2023-09-19T08:13:31;3.40;;;2.10;;
10162;SDS011;5123;52.556;13.384;2023-09-19T08:16:08;3.03;;;2.10;;
10162;SDS011;5123;52.556;13.384;2023-09-19T08:18:41;6.13;;;3.17;;
10162;SDS011;5123;52.556;13.384;2023-09-19T08:21:15;4.93;;;2.57;;
10162;SDS011;5123;52.556;13.384;2023-09-19T08:23:48;4.17;;;2.70;;
10162;SDS011;5123;52.556;13.384;2023-09-19T08:26:21;3.77;;;2.60;;
10162;SDS011;5123;52.556;13.384;2023-09-19T08:28:55;4.83;;;2.50;;
10162;SDS011;5123;52.556;13.384;2023-09-19T08:31:28;4.43;;;2.40;;
10162;SDS011;5123;52.556;13.384;2023-09-19T08:34:01;5.40;;;3.30;;
10162;SDS011;5123;52.556;13.384;2023-09-19T08:36:34;6.83;;;2.97;;
10162;SDS011;5123;52.556;13.384;2023-09-19T08:39:10;4.20;;;3.00;;
10162;SDS011;5123;52.556;13.384;2023-09-19T08:41:45;4.17;;;2.90;;
10162;SDS011;5123;52.556;13.384;2023-09-19T08:44:19;4.50;;;2.77;;
10162;SDS011;5123;52.556;13.384;2023-09-19T08:46:53;6.07;;;3.20;;
10162;SDS011;5123;52.556;13.384;2023-09-19T08:49:27;8.37;;;3.07;;
10162;SDS011;5123;52.556;13.384;2023-09-19T08:52:07;11.27;;;4.17;;
10162;SDS011;5123;52.556;13.384;2023-09-19T08:54:42;4.60;;;3.23;;
10162;SDS011;5123;52.556;13.384;2023-09-19T08:57:17;4.13;;;3.40;;
10162;SDS011;5123;52.556;13.384;2023-09-19T08:59:54;5.47;;;3.57;;
10162;SDS011;5123;52.556;13.384;2023-09-19T09:02:27;7.20;;;3.03;;
10162;SDS011;5123;52.556;13.384;2023-09-19T09:05:01;3.97;;;3.30;;
10162;SDS011;5123;52.556;13.384;2023-09-19T09:07:40;7.13;;;3.60;;
10162;SDS011;5123;52.556;13.384;2023-09-19T09:10:13;5.67;;;3.30;;
10162;SDS011;5123;52.556;13.384;2023-09-19T09:12:46;4.63;;;2.67;;
10162;SDS011;5123;52.556;13.384;2023-09-19T09:15:20;5.93;;;2.87;;
10162;SDS011;5123;52.556;13.384;2023-09-19T09:17:55;4.03;;;2.97;;
10162;SDS011;5123;52.556;13.384;2023-09-19T09:20:29;4.00;;;2.60;;
10162;SDS011;5123;52.556;13.384;2023-09-19T09:23:01;4.53;;;3.37;;
10162;SDS011;5123;52.556;13.384;2023-09-19T09:25:49;4.90;;;3.33;;
10162;SDS011;5123;52.556;13.384;2023-09-19T09:28:27;6.50;;;3.33;;
10162;SDS011;5123;52.556;13.384;2023-09-19T09:31:06;4.20;;;2.70;;
10162;SDS011;5123;52.556;13.384;2023-09-19T09:33:54;3.53;;;2.80;;
10162;SDS011;5123;52.556;13.384;2023-09-19T09:36:34;11.47;;;3.33;;
10162;SDS011;5123;52.556;13.384;2023-09-19T09:39:08;7.33;;;2.90;;
10162;SDS011;5123;52.556;13.384;2023-09-19T09:41:51;5.37;;;2.93;;
10162;SDS011;5123;52.556;13.384;2023-09-19T09:44:23;4.63;;;2.70;;
10162;SDS011;5123;52.556;13.384;2023-09-19T09:46:57;6.47;;;2.90;;
10162;SDS011;5123;52.556;13.384;2023-09-19T09:49:47;6.97;;;4.73;;
10162;SDS011;5123;52.556;13.384;2023-09-19T09:52:26;5.40;;;3.80;;
10162;SDS011;5123;52.556;13.384;2023-09-19T09:55:00;7.87;;;3.30;;
10162;SDS011;5123;52.556;13.384;2023-09-19T09:57:39;5.00;;;3.40;;
10162;SDS011;5123;52.556;13.384;2023-09-19T10:00:14;5.17;;;2.90;;
10162;SDS011;5123;52.556;13.384;2023-09-19T10:02:57;5.10;;;3.27;;
10162;SDS011;5123;52.556;13.384;2023-09-19T10:05:32;4.80;;;3.33;;
10162;SDS011;5123;52.556;13.384;2023-09-19T10:08:12;6.73;;;3.43;;
10162;SDS011;5123;52.556;13.384;2023-09-19T10:10:50;4.73;;;3.20;;
10162;SDS011;5123;52.556;13.384;2023-09-19T10:13:34;4.03;;;3.10;;
10162;SDS011;5123;52.556;13.384;2023-09-19T10:16:08;4.57;;;2.97;;
10162;SDS011;5123;52.556;13.384;2023-09-19T10:18:44;6.73;;;3.33;;
10162;SDS011;5123;52.556;13.384;2023-09-19T10:21:17;4.83;;;3.10;;
10162;SDS011;5123;52.556;13.384;2023-09-19T10:23:55;4.97;;;2.83;;
10162;SDS011;5123;52.556;13.384;2023-09-19T10:26:30;5.30;;;2.97;;
10162;SDS011;5123;52.556;13.384;2023-09-19T10:29:03;4.43;;;3.10;;
10162;SDS011;5123;52.556;13.384;2023-09-19T10:31:39;5.80;;;3.03;;
10162;SDS011;5123;52.556;13.384;2023-09-19T10:34:20;6.40;;;3.70;;
10162;SDS011;5123;52.556;13.384;2023-09-19T10:36:53;5.13;;;3.03;;
10162;SDS011;5123;52.556;13.384;2023-09-19T10:39:26;4.80;;;2.93;;
10162;SDS011;5123;52.556;13.384;2023-09-19T10:42:03;7.80;;;3.97;;
10162;SDS011;5123;52.556;13.384;2023-09-19T10:44:38;4.50;;;3.20;;
10162;SDS011;5123;52.556;13.384;2023-09-19T10:47:14;6.43;;;3.30;;
10162;SDS011;5123;52.556;13.384;2023-09-19T10:49:51;6.33;;;3.27;;
10162;SDS011;5123;52.556;13.384;2023-09-19T10:52:25;5.67;;;3.00;;
10162;SDS011;5123;52.556;13.384;2023-09-19T10:55:04;3.53;;;2.70;;
10162;SDS011;5123;52.556;13.384;2023-09-19T10:57:43;7.13;;;2.77;;
10162;SDS011;5123;52.556;13.384;2023-09-19T11:00:18;5.27;;;2.83;;
10162;SDS011;5123;52.556;13.384;2023-09-19T11:06:03;6.97;;;3.47;;
10162;SDS011;5123;52.556;13.384;2023-09-19T11:08:54;5.83;;;2.97;;
10162;SDS011;5123;52.556;13.384;2023-09-19T11:11:41;4.13;;;2.77;;
10162;SDS011;5123;52.556;13.384;2023-09-19T11:14:14;5.40;;;3.00;;
10162;SDS011;5123;52.556;13.384;2023-09-19T11:22:26;4.67;;;2.73;;
10162;SDS011;5123;52.556;13.384;2023-09-19T11:34:06;5.60;;;2.67;;
10162;SDS011;5123;52.556;13.384;2023-09-19T11:36:59;7.37;;;2.70;;
10162;SDS011;5123;52.556;13.384;2023-09-19T11:39:34;4.73;;;2.70;;
10162;SDS011;5123;52.556;13.384;2023-09-19T11:45:01;4.00;;;2.60;;
10162;SDS011;5123;52.556;13.384;2023-09-19T11:47:34;3.47;;;2.23;;
10162;SDS011;5123;52.556;13.384;2023-09-19T11:50:07;5.80;;;2.57;;
10162;SDS011;5123;52.556;13.384;2023-09-19T11:52:42;4.80;;;2.43;;
10162;SDS011;5123;52.556;13.384;2023-09-19T11:55:17;5.40;;;2.23;;
10162;SDS011;5123;52.556;13.384;2023-09-19T11:57:54;4.17;;;2.43;;
10162;SDS011;5123;52.556;13.384;2023-09-19T12:00:27;5.27;;;2.13;;
10162;SDS011;5123;52.556;13.384;2023-09-19T12:03:01;5.03;;;2.33;;
10162;SDS011;5123;52.556;13.384;2023-09-19T12:05:39;4.60;;;2.27;;
10162;SDS011;5123;52.556;13.384;2023-09-19T12:08:12;4.20;;;2.10;;
10162;SDS011;5123;52.556;13.384;2023-09-19T12:10:52;5.80;;;2.50;;
10162;SDS011;5123;52.556;13.384;2023-09-19T12:13:26;5.53;;;2.50;;
10162;SDS011;5123;52.556;13.384;2023-09-19T12:16:01;5.43;;;2.30;;
10162;SDS011;5123;52.556;13.384;2023-09-19T12:18:34;6.43;;;2.47;;
10162;SDS011;5123;52.556;13.384;2023-09-19T12:21:07;4.87;;;2.40;;
10162;SDS011;5123;52.556;13.384;2023-09-19T12:23:43;3.87;;;2.17;;
10162;SDS011;5123;52.556;13.384;2023-09-19T12:26:29;5.07;;;2.80;;
10162;SDS011;5123;52.556;13.384;2023-09-19T12:29:05;5.23;;;2.23;;
10162;SDS011;5123;52.556;13.384;2023-09-19T12:31:46;4.23;;;2.30;;
10162;SDS011;5123;52.556;13.384;2023-09-19T12:34:21;5.67;;;2.43;;
10162;SDS011;5123;52.556;13.384;2023-09-19T12:37:04;3.97;;;2.23;;
10162;SDS011;5123;52.556;13.384;2023-09-19T12:39:42;3.10;;;2.17;;
10162;SDS011;5123;52.556;13.384;2023-09-19T12:42:22;5.40;;;2.30;;
10162;SDS011;5123;52.556;13.384;2023-09-19T12:44:55;3.70;;;2.10;;
10162;SDS011;5123;52.556;13.384;2023-09-19T12:47:28;3.13;;;1.67;;
10162;SDS011;5123;52.556;13.384;2023-09-19T12:50:06;3.33;;;1.70;;
10162;SDS011;5123;52.556;13.384;2023-09-19T12:52:45;3.83;;;2.00;;
10162;SDS011;5123;52.556;13.384;2023-09-19T12:55:19;5.77;;;1.60;;
10162;SDS011;5123;52.556;13.384;2023-09-19T12:58:12;3.63;;;2.30;;
10162;SDS011;5123;52.556;13.384;2023-09-19T13:00:46;1.87;;;1.50;;
10162;SDS011;5123;52.556;13.384;2023-09-19T13:03:26;3.07;;;1.80;;
10162;SDS011;5123;52.556;13.384;2023-09-19T13:06:00;2.60;;;2.00;;
10162;SDS011;5123;52.556;13.384;2023-09-19T13:08:34;3.73;;;1.97;;
10162;SDS011;5123;52.556;13.384;2023-09-19T13:11:10;3.53;;;1.93;;
10162;SDS011;5123;52.556;13.384;2023-09-19T13:13:46;2.30;;;1.70;;
10162;SDS011;5123;52.556;13.384;2023-09-19T13:16:21;3.40;;;1.83;;
10162;SDS011;5123;52.556;13.384;2023-09-19T13:18:56;3.80;;;2.07;;
10162;SDS011;5123;52.556;13.384;2023-09-19T13:21:29;4.30;;;1.93;;
10162;SDS011;5123;52.556;13.384;2023-09-19T13:24:18;5.20;;;1.90;;
10162;SDS011;5123;52.556;13.384;2023-09-19T13:26:51;4.63;;;2.50;;
10162;SDS011;5123;52.556;13.384;2023-09-19T13:29:25;6.00;;;2.13;;
10162;SDS011;5123;52.556;13.384;2023-09-19T13:31:58;5.23;;;2.17;;
10162;SDS011;5123;52.556;13.384;2023-09-19T13:34:31;4.37;;;1.83;;
10162;SDS011;5123;52.556;13.384;2023-09-19T13:37:04;7.20;;;2.30;;
10162;SDS011;5123;52.556;13.384;2023-09-19T13:39:39;3.47;;;1.60;;
10162;SDS011;5123;52.556;13.384;2023-09-19T13:42:14;3.83;;;1.77;;
10162;SDS011;5123;52.556;13.384;2023-09-19T13:44:48;4.43;;;1.90;;
10162;SDS011;5123;52.556;13.384;2023-09-19T13:47:21;3.93;;;1.73;;
10162;SDS011;5123;52.556;13.384;2023-09-19T13:49:56;4.43;;;1.90;;
10162;SDS011;5123;52.556;13.384;2023-09-19T13:52:29;5.73;;;2.10;;
10162;SDS011;5123;52.556;13.384;2023-09-19T13:55:02;2.67;;;1.80;;
10162;SDS011;5123;52.556;13.384;2023-09-19T13:57:35;4.23;;;2.20;;
10162;SDS011;5123;52.556;13.384;2023-09-19T14:00:09;3.50;;;1.93;;
10162;SDS011;5123;52.556;13.384;2023-09-19T14:02:47;2.93;;;1.77;;
10162;SDS011;5123;52.556;13.384;2023-09-19T14:08:57;1.93;;;1.73;;
10162;SDS011;5123;52.556;13.384;2023-09-19T14:11:30;4.07;;;1.97;;
10162;SDS011;5123;52.556;13.384;2023-09-19T14:14:02;3.60;;;2.10;;
10162;SDS011;5123;52.556;13.384;2023-09-19T14:16:37;6.93;;;1.93;;
10162;SDS011;5123;52.556;13.384;2023-09-19T14:19:12;3.33;;;1.87;;
10162;SDS011;5123;52.556;13.384;2023-09-19T14:21:47;4.10;;;2.00;;
10162;SDS011;5123;52.556;13.384;2023-09-19T14:24:20;7.57;;;3.50;;
10162;SDS011;5123;52.556;13.384;2023-09-19T14:26:53;16.07;;;10.43;;
10162;SDS011;5123;52.556;13.384;2023-09-19T14:29:26;14.67;;;9.57;;
10162;SDS011;5123;52.556;13.384;2023-09-19T14:32:00;12.83;;;8.03;;
10162;SDS011;5123;52.556;13.384;2023-09-19T14:34:37;6.90;;;4.20;;
10162;SDS011;5123;52.556;13.384;2023-09-19T14:37:13;8.80;;;4.60;;
10162;SDS011;5123;52.556;13.384;2023-09-19T14:39:47;5.80;;;3.37;;
10162;SDS011;5123;52.556;13.384;2023-09-19T14:42:20;5.40;;;3.63;;
10162;SDS011;5123;52.556;13.384;2023-09-19T14:44:53;4.73;;;3.23;;
10162;SDS011;5123;52.556;13.384;2023-09-19T14:47:27;7.23;;;3.00;;
10162;SDS011;5123;52.556;13.384;2023-09-19T14:50:02;5.97;;;2.80;;
10162;SDS011;5123;52.556;13.384;2023-09-19T14:52:37;5.23;;;2.17;;
10162;SDS011;5123;52.556;13.384;2023-09-19T14:55:11;5.53;;;2.13;;
10162;SDS011;5123;52.556;13.384;2023-09-19T14:57:48;6.00;;;2.47;;
10162;SDS011;5123;52.556;13.384;2023-09-19T15:00:22;5.10;;;2.57;;
10162;SDS011;5123;52.556;13.384;2023-09-19T15:02:56;5.07;;;2.53;;
10162;SDS011;5123;52.556;13.384;2023-09-19T15:05:31;4.53;;;2.50;;
10162;SDS011;5123;52.556;13.384;2023-09-19T15:08:05;8.80;;;2.67;;
10162;SDS011;5123;52.556;13.384;2023-09-19T15:10:38;7.90;;;2.80;;
10162;SDS011;5123;52.556;13.384;2023-09-19T15:13:11;4.27;;;2.20;;
10162;SDS011;5123;52.556;13.384;2023-09-19T15:15:44;5.63;;;2.20;;
10162;SDS011;5123;52.556;13.384;2023-09-19T15:18:21;4.47;;;3.37;;
10162;SDS011;5123;52.556;13.384;2023-09-19T15:20:53;5.53;;;2.40;;
10162;SDS011;5123;52.556;13.384;2023-09-19T15:23:26;5.70;;;2.60;;
10162;SDS011;5123;52.556;13.384;2023-09-19T15:26:03;4.37;;;2.40;;
10162;SDS011;5123;52.556;13.384;2023-09-19T15:28:39;3.77;;;2.13;;
10162;SDS011;5123;52.556;13.384;2023-09-19T15:31:14;2.73;;;1.97;;
10162;SDS011;5123;52.556;13.384;2023-09-19T15:33:50;5.63;;;2.93;;
10162;SDS011;5123;52.556;13.384;2023-09-19T15:36:23;4.33;;;2.40;;
10162;SDS011;5123;52.556;13.384;2023-09-19T15:38:57;5.90;;;2.70;;
10162;SDS011;5123;52.556;13.384;2023-09-19T15:41:31;3.70;;;2.40;;
10162;SDS011;5123;52.556;13.384;2023-09-19T15:44:07;3.50;;;2.00;;
10162;SDS011;5123;52.556;13.384;2023-09-19T15:46:43;5.00;;;2.10;;
10162;SDS011;5123;52.556;13.384;2023-09-19T15:49:17;3.53;;;2.60;;
10162;SDS011;5123;52.556;13.384;2023-09-19T15:51:50;4.97;;;2.30;;
10162;SDS011;5123;52.556;13.384;2023-09-19T15:54:23;4.17;;;2.43;;
10162;SDS011;5123;52.556;13.384;2023-09-19T15:57:00;4.20;;;2.50;;
10162;SDS011;5123;52.556;13.384;2023-09-19T15:59:35;4.47;;;2.57;;
10162;SDS011;5123;52.556;13.384;2023-09-19T16:02:07;6.73;;;2.73;;